sensor_id;sensor_type;location;lat;lon;timestamp;P1;durP1;ratioP1;P2;durP2;ratioP2
80278;SDS011;70683;52.492;13.416;2024-03-07T00:01:01;114.25;;;43.52;;
80278;SDS011;70683;52.492;13.416;2024-03-07T00:03:29;108.55;;;42.43;;
80278;SDS011;70683;52.492;13.416;2024-03-07T00:05:55;113.77;;;44.35;;
80278;SDS011;70683;52.492;13.416;2024-03-07T00:08:22;118.93;;;43.40;;
80278;SDS011;70683;52.492;13.416;2024-03-07T00:10:49;114.75;;;43.55;;
80278;SDS011;70683;52.492;13.416;2024-03-07T00:13:15;117.37;;;44.83;;
80278;SDS011;70683;52.492;13.416;2024-03-07T00:15:42;123.22;;;45.28;;
80278;SDS011;70683;52.492;13.416;2024-03-07T00:18:08;119.55;;;45.70;;
80278;SDS011;70683;52.492;13.416;2024-03-07T00:20:36;118.10;;;43.48;;
80278;SDS011;70683;52.492;13.416;2024-03-07T00:23:03;118.33;;;43.42;;
80278;SDS011;70683;52.492;13.416;2024-03-07T00:25:30;121.95;;;43.73;;
80278;SDS011;70683;52.492;13.416;2024-03-07T00:27:57;108.52;;;41.85;;
80278;SDS011;70683;52.492;13.416;2024-03-07T00:30:25;117.42;;;42.45;;
80278;SDS011;70683;52.492;13.416;2024-03-07T00:32:54;109.10;;;41.20;;
80278;SDS011;70683;52.492;13.416;2024-03-07T00:35:21;116.88;;;43.63;;
80278;SDS011;70683;52.492;13.416;2024-03-07T00:37:48;110.90;;;42.30;;
80278;SDS011;70683;52.492;13.416;2024-03-07T00:40:15;110.00;;;41.35;;
80278;SDS011;70683;52.492;13.416;2024-03-07T00:42:41;104.97;;;40.83;;
80278;SDS011;70683;52.492;13.416;2024-03-07T00:45:08;111.10;;;41.77;;
80278;SDS011;70683;52.492;13.416;2024-03-07T00:47:35;113.30;;;42.83;;
80278;SDS011;70683;52.492;13.416;2024-03-07T00:50:04;119.35;;;42.38;;
80278;SDS011;70683;52.492;13.416;2024-03-07T00:52:31;116.22;;;42.33;;
80278;SDS011;70683;52.492;13.416;2024-03-07T00:54:58;113.68;;;40.17;;
80278;SDS011;70683;52.492;13.416;2024-03-07T00:57:25;114.70;;;41.53;;
80278;SDS011;70683;52.492;13.416;2024-03-07T00:59:51;111.32;;;40.92;;
80278;SDS011;70683;52.492;13.416;2024-03-07T01:02:18;110.57;;;40.43;;
80278;SDS011;70683;52.492;13.416;2024-03-07T01:04:45;116.50;;;41.63;;
80278;SDS011;70683;52.492;13.416;2024-03-07T01:07:11;120.10;;;41.55;;
80278;SDS011;70683;52.492;13.416;2024-03-07T01:09:38;106.27;;;40.67;;
80278;SDS011;70683;52.492;13.416;2024-03-07T01:12:05;112.68;;;38.05;;
80278;SDS011;70683;52.492;13.416;2024-03-07T01:14:32;112.75;;;41.15;;
80278;SDS011;70683;52.492;13.416;2024-03-07T01:16:58;104.32;;;39.70;;
80278;SDS011;70683;52.492;13.416;2024-03-07T01:19:25;107.52;;;39.27;;
80278;SDS011;70683;52.492;13.416;2024-03-07T01:21:52;112.50;;;41.90;;
80278;SDS011;70683;52.492;13.416;2024-03-07T01:24:19;113.42;;;41.58;;
80278;SDS011;70683;52.492;13.416;2024-03-07T01:26:46;106.65;;;39.55;;
80278;SDS011;70683;52.492;13.416;2024-03-07T01:29:13;109.78;;;40.63;;
80278;SDS011;70683;52.492;13.416;2024-03-07T01:31:40;114.12;;;39.55;;
80278;SDS011;70683;52.492;13.416;2024-03-07T01:34:06;100.47;;;39.80;;
80278;SDS011;70683;52.492;13.416;2024-03-07T01:36:33;109.80;;;38.60;;
80278;SDS011;70683;52.492;13.416;2024-03-07T01:38:59;103.85;;;39.18;;
80278;SDS011;70683;52.492;13.416;2024-03-07T01:41:28;119.15;;;39.55;;
80278;SDS011;70683;52.492;13.416;2024-03-07T01:43:55;105.95;;;39.18;;
80278;SDS011;70683;52.492;13.416;2024-03-07T01:46:22;110.28;;;40.98;;
80278;SDS011;70683;52.492;13.416;2024-03-07T01:48:48;102.72;;;40.23;;
80278;SDS011;70683;52.492;13.416;2024-03-07T01:51:15;117.03;;;38.60;;
80278;SDS011;70683;52.492;13.416;2024-03-07T01:53:42;107.80;;;39.60;;
80278;SDS011;70683;52.492;13.416;2024-03-07T01:56:11;107.83;;;39.15;;
80278;SDS011;70683;52.492;13.416;2024-03-07T01:58:37;95.17;;;37.65;;
80278;SDS011;70683;52.492;13.416;2024-03-07T02:01:05;97.33;;;37.42;;
80278;SDS011;70683;52.492;13.416;2024-03-07T02:03:32;101.15;;;38.10;;
80278;SDS011;70683;52.492;13.416;2024-03-07T02:05:59;103.83;;;38.85;;
80278;SDS011;70683;52.492;13.416;2024-03-07T02:08:27;96.32;;;37.75;;
80278;SDS011;70683;52.492;13.416;2024-03-07T02:10:54;98.07;;;36.33;;
80278;SDS011;70683;52.492;13.416;2024-03-07T02:13:20;98.22;;;38.30;;
80278;SDS011;70683;52.492;13.416;2024-03-07T02:15:47;101.45;;;38.10;;
80278;SDS011;70683;52.492;13.416;2024-03-07T02:18:13;104.97;;;37.53;;
80278;SDS011;70683;52.492;13.416;2024-03-07T02:20:43;97.78;;;37.60;;
80278;SDS011;70683;52.492;13.416;2024-03-07T02:23:11;98.35;;;37.48;;
80278;SDS011;70683;52.492;13.416;2024-03-07T02:25:38;103.27;;;37.30;;
80278;SDS011;70683;52.492;13.416;2024-03-07T02:28:05;89.70;;;37.50;;
80278;SDS011;70683;52.492;13.416;2024-03-07T02:30:32;114.62;;;38.98;;
80278;SDS011;70683;52.492;13.416;2024-03-07T02:32:59;105.60;;;36.20;;
80278;SDS011;70683;52.492;13.416;2024-03-07T02:35:33;101.42;;;39.92;;
80278;SDS011;70683;52.492;13.416;2024-03-07T02:38:02;95.50;;;37.70;;
80278;SDS011;70683;52.492;13.416;2024-03-07T02:40:29;100.22;;;37.55;;
80278;SDS011;70683;52.492;13.416;2024-03-07T02:42:56;104.00;;;39.00;;
80278;SDS011;70683;52.492;13.416;2024-03-07T02:45:23;114.40;;;40.23;;
80278;SDS011;70683;52.492;13.416;2024-03-07T02:47:51;94.28;;;39.63;;
80278;SDS011;70683;52.492;13.416;2024-03-07T02:50:19;114.45;;;40.03;;
80278;SDS011;70683;52.492;13.416;2024-03-07T02:52:47;108.95;;;41.35;;
80278;SDS011;70683;52.492;13.416;2024-03-07T02:55:15;105.65;;;39.95;;
80278;SDS011;70683;52.492;13.416;2024-03-07T02:57:42;117.57;;;41.40;;
80278;SDS011;70683;52.492;13.416;2024-03-07T03:00:09;98.85;;;42.03;;
80278;SDS011;70683;52.492;13.416;2024-03-07T03:02:51;98.30;;;41.08;;
80278;SDS011;70683;52.492;13.416;2024-03-07T03:05:19;118.93;;;40.90;;
80278;SDS011;70683;52.492;13.416;2024-03-07T03:07:45;105.40;;;40.63;;
80278;SDS011;70683;52.492;13.416;2024-03-07T03:10:19;96.53;;;41.63;;
80278;SDS011;70683;52.492;13.416;2024-03-07T03:12:52;101.15;;;41.05;;
80278;SDS011;70683;52.492;13.416;2024-03-07T03:15:19;105.63;;;42.43;;
80278;SDS011;70683;52.492;13.416;2024-03-07T03:17:47;98.60;;;40.55;;
80278;SDS011;70683;52.492;13.416;2024-03-07T03:20:14;100.58;;;41.13;;
80278;SDS011;70683;52.492;13.416;2024-03-07T03:22:43;99.62;;;40.28;;
80278;SDS011;70683;52.492;13.416;2024-03-07T03:25:09;98.33;;;40.40;;
80278;SDS011;70683;52.492;13.416;2024-03-07T03:27:36;102.35;;;40.28;;
80278;SDS011;70683;52.492;13.416;2024-03-07T03:30:03;99.72;;;40.63;;
80278;SDS011;70683;52.492;13.416;2024-03-07T03:32:30;96.47;;;39.85;;
80278;SDS011;70683;52.492;13.416;2024-03-07T03:34:57;95.62;;;39.73;;
80278;SDS011;70683;52.492;13.416;2024-03-07T03:37:23;88.67;;;39.25;;
80278;SDS011;70683;52.492;13.416;2024-03-07T03:39:50;92.00;;;38.48;;
80278;SDS011;70683;52.492;13.416;2024-03-07T03:42:17;100.90;;;40.15;;
80278;SDS011;70683;52.492;13.416;2024-03-07T03:44:43;84.20;;;35.95;;
80278;SDS011;70683;52.492;13.416;2024-03-07T03:47:10;94.00;;;37.85;;
80278;SDS011;70683;52.492;13.416;2024-03-07T03:49:36;88.17;;;37.03;;
80278;SDS011;70683;52.492;13.416;2024-03-07T03:52:03;86.10;;;37.53;;
80278;SDS011;70683;52.492;13.416;2024-03-07T03:54:30;76.72;;;35.73;;
80278;SDS011;70683;52.492;13.416;2024-03-07T03:56:56;83.67;;;35.50;;
80278;SDS011;70683;52.492;13.416;2024-03-07T03:59:24;79.17;;;35.40;;
80278;SDS011;70683;52.492;13.416;2024-03-07T04:01:51;86.02;;;34.33;;
80278;SDS011;70683;52.492;13.416;2024-03-07T04:04:17;73.37;;;34.60;;
80278;SDS011;70683;52.492;13.416;2024-03-07T04:06:44;78.72;;;35.70;;
80278;SDS011;70683;52.492;13.416;2024-03-07T04:09:10;79.27;;;35.30;;
80278;SDS011;70683;52.492;13.416;2024-03-07T04:11:37;77.90;;;33.70;;
80278;SDS011;70683;52.492;13.416;2024-03-07T04:14:04;72.87;;;33.13;;
80278;SDS011;70683;52.492;13.416;2024-03-07T04:16:30;64.27;;;31.27;;
80278;SDS011;70683;52.492;13.416;2024-03-07T04:18:57;66.95;;;31.40;;
80278;SDS011;70683;52.492;13.416;2024-03-07T04:21:23;64.27;;;31.25;;
80278;SDS011;70683;52.492;13.416;2024-03-07T04:23:51;69.58;;;33.35;;
80278;SDS011;70683;52.492;13.416;2024-03-07T04:26:17;63.70;;;31.57;;
80278;SDS011;70683;52.492;13.416;2024-03-07T04:28:44;60.48;;;31.95;;
80278;SDS011;70683;52.492;13.416;2024-03-07T04:31:11;65.90;;;32.48;;
80278;SDS011;70683;52.492;13.416;2024-03-07T04:33:37;64.75;;;30.82;;
80278;SDS011;70683;52.492;13.416;2024-03-07T04:36:04;61.42;;;31.73;;
80278;SDS011;70683;52.492;13.416;2024-03-07T04:38:33;60.40;;;30.37;;
80278;SDS011;70683;52.492;13.416;2024-03-07T04:40:59;62.65;;;31.50;;
80278;SDS011;70683;52.492;13.416;2024-03-07T04:43:26;61.20;;;32.25;;
80278;SDS011;70683;52.492;13.416;2024-03-07T04:45:52;66.28;;;31.45;;
80278;SDS011;70683;52.492;13.416;2024-03-07T04:48:19;65.45;;;31.60;;
80278;SDS011;70683;52.492;13.416;2024-03-07T04:50:46;59.15;;;31.95;;
80278;SDS011;70683;52.492;13.416;2024-03-07T04:53:13;61.37;;;29.87;;
80278;SDS011;70683;52.492;13.416;2024-03-07T04:55:40;61.37;;;31.05;;
80278;SDS011;70683;52.492;13.416;2024-03-07T04:58:06;60.28;;;30.90;;
80278;SDS011;70683;52.492;13.416;2024-03-07T05:00:33;58.75;;;31.75;;
80278;SDS011;70683;52.492;13.416;2024-03-07T05:02:59;69.55;;;33.50;;
80278;SDS011;70683;52.492;13.416;2024-03-07T05:05:26;60.25;;;29.52;;
80278;SDS011;70683;52.492;13.416;2024-03-07T05:07:53;57.73;;;31.27;;
80278;SDS011;70683;52.492;13.416;2024-03-07T05:10:21;58.35;;;30.57;;
80278;SDS011;70683;52.492;13.416;2024-03-07T05:12:48;58.28;;;29.70;;
80278;SDS011;70683;52.492;13.416;2024-03-07T05:15:14;65.25;;;30.90;;
80278;SDS011;70683;52.492;13.416;2024-03-07T05:17:41;60.88;;;31.20;;
80278;SDS011;70683;52.492;13.416;2024-03-07T05:20:08;57.20;;;31.02;;
80278;SDS011;70683;52.492;13.416;2024-03-07T05:22:38;58.17;;;31.55;;
80278;SDS011;70683;52.492;13.416;2024-03-07T05:25:09;65.90;;;31.73;;
80278;SDS011;70683;52.492;13.416;2024-03-07T05:27:36;61.65;;;31.30;;
80278;SDS011;70683;52.492;13.416;2024-03-07T05:30:03;66.05;;;32.17;;
80278;SDS011;70683;52.492;13.416;2024-03-07T05:32:34;62.13;;;32.17;;
80278;SDS011;70683;52.492;13.416;2024-03-07T05:35:00;61.55;;;30.77;;
80278;SDS011;70683;52.492;13.416;2024-03-07T05:37:27;64.30;;;31.82;;
80278;SDS011;70683;52.492;13.416;2024-03-07T05:39:53;59.23;;;31.90;;
80278;SDS011;70683;52.492;13.416;2024-03-07T05:42:20;67.47;;;32.75;;
80278;SDS011;70683;52.492;13.416;2024-03-07T05:44:47;66.80;;;32.00;;
80278;SDS011;70683;52.492;13.416;2024-03-07T05:47:13;66.20;;;33.18;;
80278;SDS011;70683;52.492;13.416;2024-03-07T05:49:41;53.45;;;30.48;;
80278;SDS011;70683;52.492;13.416;2024-03-07T05:52:08;64.85;;;32.73;;
80278;SDS011;70683;52.492;13.416;2024-03-07T05:54:35;62.85;;;32.28;;
80278;SDS011;70683;52.492;13.416;2024-03-07T05:57:02;60.83;;;30.55;;
80278;SDS011;70683;52.492;13.416;2024-03-07T05:59:29;60.48;;;31.17;;
80278;SDS011;70683;52.492;13.416;2024-03-07T06:01:57;54.95;;;30.25;;
80278;SDS011;70683;52.492;13.416;2024-03-07T06:04:24;56.30;;;29.82;;
80278;SDS011;70683;52.492;13.416;2024-03-07T06:06:51;54.18;;;28.35;;
80278;SDS011;70683;52.492;13.416;2024-03-07T06:09:18;61.50;;;30.12;;
80278;SDS011;70683;52.492;13.416;2024-03-07T06:11:47;54.10;;;30.12;;
80278;SDS011;70683;52.492;13.416;2024-03-07T06:14:14;55.43;;;28.10;;
80278;SDS011;70683;52.492;13.416;2024-03-07T06:16:42;48.92;;;27.50;;
80278;SDS011;70683;52.492;13.416;2024-03-07T06:19:09;48.38;;;26.20;;
80278;SDS011;70683;52.492;13.416;2024-03-07T06:21:37;52.98;;;26.48;;
80278;SDS011;70683;52.492;13.416;2024-03-07T06:24:06;46.98;;;24.63;;
80278;SDS011;70683;52.492;13.416;2024-03-07T06:26:36;47.15;;;26.87;;
80278;SDS011;70683;52.492;13.416;2024-03-07T06:29:20;51.28;;;28.05;;
80278;SDS011;70683;52.492;13.416;2024-03-07T06:31:47;45.78;;;25.52;;
80278;SDS011;70683;52.492;13.416;2024-03-07T06:34:14;48.48;;;26.10;;
80278;SDS011;70683;52.492;13.416;2024-03-07T06:36:41;47.95;;;24.75;;
80278;SDS011;70683;52.492;13.416;2024-03-07T06:39:07;46.30;;;24.43;;
80278;SDS011;70683;52.492;13.416;2024-03-07T06:41:37;43.28;;;23.20;;
80278;SDS011;70683;52.492;13.416;2024-03-07T06:44:04;40.78;;;23.67;;
80278;SDS011;70683;52.492;13.416;2024-03-07T06:46:33;43.28;;;22.22;;
80278;SDS011;70683;52.492;13.416;2024-03-07T06:49:00;40.95;;;22.30;;
80278;SDS011;70683;52.492;13.416;2024-03-07T06:51:26;35.45;;;21.55;;
80278;SDS011;70683;52.492;13.416;2024-03-07T06:53:53;39.63;;;20.65;;
80278;SDS011;70683;52.492;13.416;2024-03-07T06:56:21;40.52;;;20.35;;
80278;SDS011;70683;52.492;13.416;2024-03-07T06:58:49;39.05;;;20.72;;
80278;SDS011;70683;52.492;13.416;2024-03-07T07:01:16;36.25;;;19.92;;
80278;SDS011;70683;52.492;13.416;2024-03-07T07:03:44;39.45;;;20.50;;
80278;SDS011;70683;52.492;13.416;2024-03-07T07:06:11;39.30;;;19.60;;
80278;SDS011;70683;52.492;13.416;2024-03-07T07:08:38;36.58;;;20.52;;
80278;SDS011;70683;52.492;13.416;2024-03-07T07:11:04;37.70;;;18.73;;
80278;SDS011;70683;52.492;13.416;2024-03-07T07:13:31;35.78;;;18.42;;
80278;SDS011;70683;52.492;13.416;2024-03-07T07:15:58;32.98;;;19.55;;
80278;SDS011;70683;52.492;13.416;2024-03-07T07:18:25;34.63;;;18.20;;
80278;SDS011;70683;52.492;13.416;2024-03-07T07:20:51;34.50;;;18.40;;
80278;SDS011;70683;52.492;13.416;2024-03-07T07:23:18;35.05;;;18.48;;
80278;SDS011;70683;52.492;13.416;2024-03-07T07:25:45;37.90;;;19.40;;
80278;SDS011;70683;52.492;13.416;2024-03-07T07:28:12;37.23;;;19.65;;
80278;SDS011;70683;52.492;13.416;2024-03-07T07:30:40;37.85;;;18.90;;
80278;SDS011;70683;52.492;13.416;2024-03-07T07:33:08;35.48;;;18.75;;
80278;SDS011;70683;52.492;13.416;2024-03-07T07:35:34;39.65;;;19.35;;
80278;SDS011;70683;52.492;13.416;2024-03-07T07:38:01;36.28;;;18.32;;
80278;SDS011;70683;52.492;13.416;2024-03-07T07:40:27;35.17;;;17.57;;
80278;SDS011;70683;52.492;13.416;2024-03-07T07:42:56;33.85;;;17.85;;
80278;SDS011;70683;52.492;13.416;2024-03-07T07:45:23;31.20;;;17.32;;
80278;SDS011;70683;52.492;13.416;2024-03-07T07:47:51;36.35;;;17.62;;
80278;SDS011;70683;52.492;13.416;2024-03-07T07:50:20;35.15;;;17.98;;
80278;SDS011;70683;52.492;13.416;2024-03-07T07:52:49;28.32;;;15.95;;
80278;SDS011;70683;52.492;13.416;2024-03-07T07:55:19;29.13;;;15.63;;
80278;SDS011;70683;52.492;13.416;2024-03-07T07:57:48;32.58;;;16.73;;
80278;SDS011;70683;52.492;13.416;2024-03-07T08:00:18;33.10;;;16.70;;
80278;SDS011;70683;52.492;13.416;2024-03-07T08:02:49;33.10;;;15.93;;
80278;SDS011;70683;52.492;13.416;2024-03-07T08:07:49;28.77;;;15.10;;
80278;SDS011;70683;52.492;13.416;2024-03-07T08:10:18;29.50;;;16.55;;
80278;SDS011;70683;52.492;13.416;2024-03-07T08:12:46;28.70;;;16.77;;
80278;SDS011;70683;52.492;13.416;2024-03-07T08:15:14;28.80;;;16.45;;
80278;SDS011;70683;52.492;13.416;2024-03-07T08:17:42;25.02;;;15.95;;
80278;SDS011;70683;52.492;13.416;2024-03-07T08:20:10;27.50;;;15.93;;
80278;SDS011;70683;52.492;13.416;2024-03-07T08:22:38;30.05;;;16.73;;
80278;SDS011;70683;52.492;13.416;2024-03-07T08:25:09;27.67;;;15.13;;
80278;SDS011;70683;52.492;13.416;2024-03-07T08:27:38;27.85;;;16.65;;
80278;SDS011;70683;52.492;13.416;2024-03-07T08:30:07;27.62;;;16.40;;
80278;SDS011;70683;52.492;13.416;2024-03-07T08:32:55;26.85;;;15.65;;
80278;SDS011;70683;52.492;13.416;2024-03-07T08:35:22;24.52;;;15.25;;
80278;SDS011;70683;52.492;13.416;2024-03-07T08:37:51;28.12;;;14.83;;
80278;SDS011;70683;52.492;13.416;2024-03-07T08:40:20;28.95;;;15.78;;
80278;SDS011;70683;52.492;13.416;2024-03-07T08:42:50;24.77;;;14.47;;
80278;SDS011;70683;52.492;13.416;2024-03-07T08:45:18;34.35;;;15.90;;
80278;SDS011;70683;52.492;13.416;2024-03-07T08:47:46;28.27;;;16.30;;
80278;SDS011;70683;52.492;13.416;2024-03-07T08:50:15;27.00;;;14.95;;
80278;SDS011;70683;52.492;13.416;2024-03-07T08:52:43;31.17;;;14.98;;
80278;SDS011;70683;52.492;13.416;2024-03-07T08:55:12;31.00;;;15.03;;
80278;SDS011;70683;52.492;13.416;2024-03-07T08:57:42;26.27;;;14.25;;
80278;SDS011;70683;52.492;13.416;2024-03-07T09:00:12;23.62;;;14.60;;
80278;SDS011;70683;52.492;13.416;2024-03-07T09:02:45;32.60;;;15.35;;
80278;SDS011;70683;52.492;13.416;2024-03-07T09:05:12;23.75;;;14.13;;
80278;SDS011;70683;52.492;13.416;2024-03-07T09:07:38;26.10;;;15.18;;
80278;SDS011;70683;52.492;13.416;2024-03-07T09:10:05;24.50;;;14.55;;
80278;SDS011;70683;52.492;13.416;2024-03-07T09:12:32;24.30;;;14.73;;
80278;SDS011;70683;52.492;13.416;2024-03-07T09:14:59;25.12;;;14.05;;
80278;SDS011;70683;52.492;13.416;2024-03-07T09:17:25;24.32;;;13.53;;
80278;SDS011;70683;52.492;13.416;2024-03-07T09:19:52;23.75;;;13.05;;
80278;SDS011;70683;52.492;13.416;2024-03-07T09:22:18;19.07;;;12.03;;
80278;SDS011;70683;52.492;13.416;2024-03-07T09:24:45;24.07;;;14.25;;
80278;SDS011;70683;52.492;13.416;2024-03-07T09:27:12;24.18;;;14.00;;
80278;SDS011;70683;52.492;13.416;2024-03-07T09:29:40;27.15;;;13.93;;
80278;SDS011;70683;52.492;13.416;2024-03-07T09:32:07;25.80;;;12.95;;
80278;SDS011;70683;52.492;13.416;2024-03-07T09:34:34;23.62;;;13.18;;
80278;SDS011;70683;52.492;13.416;2024-03-07T09:37:02;19.92;;;12.98;;
80278;SDS011;70683;52.492;13.416;2024-03-07T09:39:29;19.52;;;12.25;;
80278;SDS011;70683;52.492;13.416;2024-03-07T09:41:57;21.05;;;12.63;;
80278;SDS011;70683;52.492;13.416;2024-03-07T09:44:24;18.32;;;11.88;;
80278;SDS011;70683;52.492;13.416;2024-03-07T09:46:54;20.40;;;12.07;;
80278;SDS011;70683;52.492;13.416;2024-03-07T09:49:24;19.12;;;12.03;;
80278;SDS011;70683;52.492;13.416;2024-03-07T09:51:53;21.25;;;12.07;;
80278;SDS011;70683;52.492;13.416;2024-03-07T09:54:23;21.70;;;11.95;;
80278;SDS011;70683;52.492;13.416;2024-03-07T09:56:53;17.27;;;10.25;;
80278;SDS011;70683;52.492;13.416;2024-03-07T09:59:20;18.27;;;10.75;;
80278;SDS011;70683;52.492;13.416;2024-03-07T10:01:54;17.05;;;10.88;;
80278;SDS011;70683;52.492;13.416;2024-03-07T10:04:29;18.10;;;10.98;;
80278;SDS011;70683;52.492;13.416;2024-03-07T10:06:58;20.65;;;11.93;;
80278;SDS011;70683;52.492;13.416;2024-03-07T10:09:25;17.65;;;10.88;;
80278;SDS011;70683;52.492;13.416;2024-03-07T10:11:56;18.67;;;11.63;;
80278;SDS011;70683;52.492;13.416;2024-03-07T10:14:24;18.62;;;11.15;;
80278;SDS011;70683;52.492;13.416;2024-03-07T10:16:53;15.75;;;10.78;;
80278;SDS011;70683;52.492;13.416;2024-03-07T10:19:22;16.75;;;10.55;;
80278;SDS011;70683;52.492;13.416;2024-03-07T10:21:49;21.37;;;10.13;;
80278;SDS011;70683;52.492;13.416;2024-03-07T10:24:17;23.95;;;11.33;;
80278;SDS011;70683;52.492;13.416;2024-03-07T10:26:48;16.30;;;10.57;;
80278;SDS011;70683;52.492;13.416;2024-03-07T10:29:15;17.42;;;9.50;;
80278;SDS011;70683;52.492;13.416;2024-03-07T10:31:44;17.37;;;9.95;;
80278;SDS011;70683;52.492;13.416;2024-03-07T10:34:11;13.70;;;9.55;;
80278;SDS011;70683;52.492;13.416;2024-03-07T10:36:38;20.90;;;10.63;;
80278;SDS011;70683;52.492;13.416;2024-03-07T10:39:05;18.92;;;10.45;;
80278;SDS011;70683;52.492;13.416;2024-03-07T10:41:44;20.80;;;11.10;;
80278;SDS011;70683;52.492;13.416;2024-03-07T10:44:24;18.25;;;11.25;;
80278;SDS011;70683;52.492;13.416;2024-03-07T10:46:52;20.43;;;10.15;;
80278;SDS011;70683;52.492;13.416;2024-03-07T10:49:19;17.30;;;10.45;;
80278;SDS011;70683;52.492;13.416;2024-03-07T10:51:55;19.57;;;10.70;;
80278;SDS011;70683;52.492;13.416;2024-03-07T10:54:36;17.15;;;9.83;;
80278;SDS011;70683;52.492;13.416;2024-03-07T10:59:45;18.35;;;11.22;;
80278;SDS011;70683;52.492;13.416;2024-03-07T11:02:15;16.20;;;10.67;;
80278;SDS011;70683;52.492;13.416;2024-03-07T11:04:50;18.15;;;9.93;;
80278;SDS011;70683;52.492;13.416;2024-03-07T11:07:20;18.45;;;11.97;;
80278;SDS011;70683;52.492;13.416;2024-03-07T11:09:49;21.73;;;11.12;;
80278;SDS011;70683;52.492;13.416;2024-03-07T11:12:21;21.12;;;10.72;;
80278;SDS011;70683;52.492;13.416;2024-03-07T11:14:50;24.72;;;11.38;;
80278;SDS011;70683;52.492;13.416;2024-03-07T11:17:19;21.12;;;12.00;;
80278;SDS011;70683;52.492;13.416;2024-03-07T11:19:47;20.10;;;11.63;;
80278;SDS011;70683;52.492;13.416;2024-03-07T11:25:00;21.55;;;12.20;;
80278;SDS011;70683;52.492;13.416;2024-03-07T11:27:37;20.32;;;10.58;;
80278;SDS011;70683;52.492;13.416;2024-03-07T11:30:05;18.42;;;11.33;;
80278;SDS011;70683;52.492;13.416;2024-03-07T11:32:35;19.30;;;11.93;;
80278;SDS011;70683;52.492;13.416;2024-03-07T11:35:04;22.50;;;11.28;;
80278;SDS011;70683;52.492;13.416;2024-03-07T11:37:39;19.12;;;11.65;;
80278;SDS011;70683;52.492;13.416;2024-03-07T11:40:12;21.33;;;11.53;;
80278;SDS011;70683;52.492;13.416;2024-03-07T11:42:45;19.52;;;11.28;;
80278;SDS011;70683;52.492;13.416;2024-03-07T11:45:14;19.55;;;11.12;;
80278;SDS011;70683;52.492;13.416;2024-03-07T11:47:47;23.65;;;11.30;;
80278;SDS011;70683;52.492;13.416;2024-03-07T11:50:13;17.20;;;11.63;;
80278;SDS011;70683;52.492;13.416;2024-03-07T11:52:42;18.90;;;10.03;;
80278;SDS011;70683;52.492;13.416;2024-03-07T11:55:09;20.02;;;10.93;;
80278;SDS011;70683;52.492;13.416;2024-03-07T11:57:36;24.00;;;12.00;;
80278;SDS011;70683;52.492;13.416;2024-03-07T12:00:04;20.72;;;11.57;;
80278;SDS011;70683;52.492;13.416;2024-03-07T12:02:34;21.95;;;12.47;;
80278;SDS011;70683;52.492;13.416;2024-03-07T12:05:03;20.62;;;12.15;;
80278;SDS011;70683;52.492;13.416;2024-03-07T12:07:32;17.75;;;11.12;;
80278;SDS011;70683;52.492;13.416;2024-03-07T12:10:00;16.95;;;11.65;;
80278;SDS011;70683;52.492;13.416;2024-03-07T12:12:30;20.25;;;12.47;;
80278;SDS011;70683;52.492;13.416;2024-03-07T12:14:58;18.90;;;12.15;;
80278;SDS011;70683;52.492;13.416;2024-03-07T12:17:27;21.82;;;13.03;;
80278;SDS011;70683;52.492;13.416;2024-03-07T12:19:56;19.57;;;11.97;;
80278;SDS011;70683;52.492;13.416;2024-03-07T12:22:24;19.27;;;11.88;;
80278;SDS011;70683;52.492;13.416;2024-03-07T12:27:28;20.50;;;12.43;;
80278;SDS011;70683;52.492;13.416;2024-03-07T12:29:55;22.50;;;12.45;;
80278;SDS011;70683;52.492;13.416;2024-03-07T12:32:22;17.90;;;11.75;;
80278;SDS011;70683;52.492;13.416;2024-03-07T12:34:51;20.50;;;13.00;;
80278;SDS011;70683;52.492;13.416;2024-03-07T12:37:18;23.47;;;13.58;;
80278;SDS011;70683;52.492;13.416;2024-03-07T12:39:47;28.85;;;13.35;;
80278;SDS011;70683;52.492;13.416;2024-03-07T12:42:16;24.72;;;12.33;;
80278;SDS011;70683;52.492;13.416;2024-03-07T12:47:25;20.65;;;13.00;;
80278;SDS011;70683;52.492;13.416;2024-03-07T12:49:51;20.17;;;12.78;;
80278;SDS011;70683;52.492;13.416;2024-03-07T12:52:18;17.10;;;12.30;;
80278;SDS011;70683;52.492;13.416;2024-03-07T12:54:45;19.82;;;12.70;;
80278;SDS011;70683;52.492;13.416;2024-03-07T12:57:13;27.10;;;13.72;;
80278;SDS011;70683;52.492;13.416;2024-03-07T12:59:40;20.17;;;13.50;;
80278;SDS011;70683;52.492;13.416;2024-03-07T13:02:08;20.20;;;12.95;;
80278;SDS011;70683;52.492;13.416;2024-03-07T13:04:38;23.65;;;12.75;;
80278;SDS011;70683;52.492;13.416;2024-03-07T13:07:05;26.30;;;13.22;;
80278;SDS011;70683;52.492;13.416;2024-03-07T13:09:33;23.95;;;14.10;;
80278;SDS011;70683;52.492;13.416;2024-03-07T13:12:00;21.68;;;14.10;;
80278;SDS011;70683;52.492;13.416;2024-03-07T13:14:29;21.35;;;13.30;;
80278;SDS011;70683;52.492;13.416;2024-03-07T13:16:59;27.37;;;15.32;;
80278;SDS011;70683;52.492;13.416;2024-03-07T13:19:30;22.40;;;13.65;;
80278;SDS011;70683;52.492;13.416;2024-03-07T13:21:57;24.32;;;13.75;;
80278;SDS011;70683;52.492;13.416;2024-03-07T13:24:24;26.05;;;13.95;;
80278;SDS011;70683;52.492;13.416;2024-03-07T13:26:52;22.58;;;12.82;;
80278;SDS011;70683;52.492;13.416;2024-03-07T13:29:19;23.67;;;12.78;;
80278;SDS011;70683;52.492;13.416;2024-03-07T13:31:49;24.65;;;12.28;;
80278;SDS011;70683;52.492;13.416;2024-03-07T13:34:18;21.52;;;12.05;;
80278;SDS011;70683;52.492;13.416;2024-03-07T13:36:44;21.35;;;12.47;;
80278;SDS011;70683;52.492;13.416;2024-03-07T13:39:11;21.25;;;12.18;;
80278;SDS011;70683;52.492;13.416;2024-03-07T13:41:40;18.27;;;11.60;;
80278;SDS011;70683;52.492;13.416;2024-03-07T13:44:08;21.05;;;13.18;;
80278;SDS011;70683;52.492;13.416;2024-03-07T13:46:36;19.95;;;13.05;;
80278;SDS011;70683;52.492;13.416;2024-03-07T13:49:03;21.80;;;12.58;;
80278;SDS011;70683;52.492;13.416;2024-03-07T13:51:35;20.97;;;13.38;;
80278;SDS011;70683;52.492;13.416;2024-03-07T13:54:04;18.10;;;11.63;;
80278;SDS011;70683;52.492;13.416;2024-03-07T13:59:17;22.42;;;12.28;;
80278;SDS011;70683;52.492;13.416;2024-03-07T14:01:56;19.37;;;12.63;;
80278;SDS011;70683;52.492;13.416;2024-03-07T14:04:38;21.60;;;12.88;;
80278;SDS011;70683;52.492;13.416;2024-03-07T14:07:16;24.10;;;13.10;;
80278;SDS011;70683;52.492;13.416;2024-03-07T14:09:53;19.23;;;12.33;;
80278;SDS011;70683;52.492;13.416;2024-03-07T14:15:18;23.67;;;14.18;;
80278;SDS011;70683;52.492;13.416;2024-03-07T14:23:39;22.13;;;12.00;;
80278;SDS011;70683;52.492;13.416;2024-03-07T14:26:33;22.27;;;13.08;;
80278;SDS011;70683;52.492;13.416;2024-03-07T14:31:49;28.95;;;14.33;;
80278;SDS011;70683;52.492;13.416;2024-03-07T14:34:20;25.00;;;14.05;;
80278;SDS011;70683;52.492;13.416;2024-03-07T14:36:53;24.02;;;14.60;;
80278;SDS011;70683;52.492;13.416;2024-03-07T14:39:22;26.87;;;14.20;;